createdAt,value
2019-02-23T00:02:08.954Z,5.83
2019-02-23T00:04:35.841Z,6.22
2019-02-23T00:07:02.778Z,6.83
2019-02-23T00:09:29.858Z,7.00
2019-02-23T00:11:56.798Z,6.35
2019-02-23T00:14:23.703Z,6.42
2019-02-23T00:16:51.036Z,6.83
2019-02-23T00:19:24.793Z,7.75
2019-02-23T00:21:46.967Z,7.20
2019-02-23T00:24:13.964Z,6.25
2019-02-23T00:26:40.985Z,6.70
2019-02-23T00:29:08.088Z,7.15
2019-02-23T00:31:35.121Z,7.03
2019-02-23T00:34:02.011Z,7.75
2019-02-23T00:36:29.066Z,6.65
2019-02-23T00:38:56.034Z,8.30
2019-02-23T00:41:23.025Z,7.97
2019-02-23T00:43:50.363Z,7.92
2019-02-23T00:46:17.297Z,8.85
2019-02-23T00:48:44.668Z,8.20
2019-02-23T00:51:11.737Z,7.60
2019-02-23T00:53:38.767Z,8.20
2019-02-23T00:56:05.894Z,7.42
2019-02-23T00:58:32.803Z,8.88
2019-02-23T01:00:59.769Z,7.42
2019-02-23T01:03:26.752Z,8.60
2019-02-23T01:05:53.795Z,8.10
2019-02-23T01:08:20.783Z,7.67
2019-02-23T01:10:57.688Z,7.65
2019-02-23T01:13:16.524Z,7.45
2019-02-23T01:15:43.529Z,7.65
2019-02-23T01:18:13.418Z,8.38
2019-02-23T01:20:40.362Z,8.98
2019-02-23T01:23:07.310Z,8.08
2019-02-23T01:25:34.266Z,8.60
2019-02-23T01:28:01.212Z,8.40
2019-02-23T01:30:28.129Z,7.58
2019-02-23T01:32:55.064Z,7.65
2019-02-23T01:35:22.050Z,8.50
2019-02-23T01:37:49.360Z,8.55
2019-02-23T01:40:16.363Z,7.75
2019-02-23T01:42:43.318Z,8.60
2019-02-23T01:45:10.319Z,8.30
2019-02-23T01:47:37.340Z,9.18
2019-02-23T01:50:05.872Z,9.80
2019-02-23T01:52:32.977Z,9.93
2019-02-23T01:54:59.916Z,7.95
2019-02-23T01:57:26.797Z,8.68
2019-02-23T01:59:53.730Z,8.90
2019-02-23T02:02:20.712Z,8.18
2019-02-23T02:04:47.645Z,8.90
2019-02-23T02:07:14.726Z,7.95
2019-02-23T02:09:42.438Z,8.45
2019-02-23T02:12:11.356Z,8.50
2019-02-23T02:14:38.415Z,8.95
2019-02-23T02:17:05.414Z,9.70
2019-02-23T02:19:32.437Z,8.95
2019-02-23T02:21:59.348Z,9.38
2019-02-23T02:24:26.269Z,8.33
2019-02-23T02:26:53.253Z,8.68
2019-02-23T02:29:20.164Z,8.53
2019-02-23T02:31:47.064Z,8.25
2019-02-23T02:34:15.514Z,9.33
2019-02-23T02:36:42.440Z,9.75
2019-02-23T02:39:11.304Z,8.30
2019-02-23T02:41:38.204Z,8.75
2019-02-23T02:44:05.113Z,9.05
2019-02-23T02:46:32.201Z,9.05
2019-02-23T02:48:59.225Z,8.70
2019-02-23T02:51:26.154Z,7.95
2019-02-23T02:53:53.245Z,7.80
2019-02-23T02:56:20.129Z,8.78
2019-02-23T02:58:47.043Z,8.20
2019-02-23T03:01:13.957Z,8.55
2019-02-23T03:03:40.954Z,8.78
2019-02-23T03:06:07.909Z,8.45
2019-02-23T03:08:34.912Z,9.28
2019-02-23T03:11:01.896Z,9.30
2019-02-23T03:13:28.849Z,8.45
2019-02-23T03:15:55.732Z,8.68
2019-02-23T03:18:22.664Z,9.80
2019-02-23T03:20:49.589Z,9.68
2019-02-23T03:23:16.690Z,8.98
2019-02-23T03:25:43.712Z,10.90
2019-02-23T03:28:10.613Z,9.60
2019-02-23T03:30:37.558Z,9.30
2019-02-23T03:33:04.703Z,9.40
2019-02-23T03:35:31.904Z,9.70
2019-02-23T03:37:59.045Z,9.80
2019-02-23T03:40:26.356Z,10.60
2019-02-23T03:42:53.355Z,9.35
2019-02-23T03:45:20.432Z,9.40
2019-02-23T03:47:47.378Z,10.05
2019-02-23T03:50:14.409Z,10.55
2019-02-23T03:52:42.818Z,9.58
2019-02-23T03:55:09.923Z,10.00
2019-02-23T03:57:37.063Z,10.53
2019-02-23T04:00:05.127Z,9.80
2019-02-23T04:02:32.192Z,10.80
2019-02-23T04:04:59.214Z,9.25
2019-02-23T04:07:26.320Z,10.30
2019-02-23T04:09:54.155Z,10.10
2019-02-23T04:12:21.257Z,11.60
2019-02-23T04:14:48.324Z,10.43
2019-02-23T04:17:15.248Z,10.25
2019-02-23T04:19:42.172Z,10.50
2019-02-23T04:22:09.281Z,9.73
2019-02-23T04:24:36.407Z,10.45
2019-02-23T04:27:03.449Z,10.20
2019-02-23T04:29:30.521Z,10.43
2019-02-23T04:31:57.570Z,10.63
2019-02-23T04:34:25.926Z,11.03
2019-02-23T04:36:52.995Z,10.50
2019-02-23T04:39:21.124Z,10.23
2019-02-23T04:41:49.166Z,9.98
2019-02-23T04:44:16.624Z,10.93
2019-02-23T04:46:44.176Z,11.78
2019-02-23T04:49:11.135Z,10.88
2019-02-23T04:51:38.198Z,10.70
2019-02-23T04:54:11.352Z,11.65
2019-02-23T04:56:38.169Z,10.48
2019-02-23T04:59:05.290Z,10.98
2019-02-23T05:01:32.256Z,10.75
2019-02-23T05:03:59.615Z,10.43
2019-02-23T05:06:26.567Z,11.35
2019-02-23T05:08:53.706Z,11.15
2019-02-23T05:11:20.719Z,11.55
2019-02-23T05:13:47.662Z,12.05
2019-02-23T05:16:14.909Z,11.60
2019-02-23T05:18:42.673Z,11.60
2019-02-23T05:21:09.686Z,12.47
2019-02-23T05:23:36.600Z,11.08
2019-02-23T05:26:03.632Z,12.88
2019-02-23T05:28:31.322Z,11.88
2019-02-23T05:30:58.539Z,12.93
2019-02-23T05:33:28.238Z,12.37
2019-02-23T05:35:55.207Z,11.85
2019-02-23T05:38:22.265Z,12.50
2019-02-23T05:40:49.307Z,11.78
2019-02-23T05:43:16.493Z,12.13
2019-02-23T05:45:43.704Z,12.03
2019-02-23T05:48:10.685Z,11.57
2019-02-23T05:50:37.745Z,13.32
2019-02-23T05:53:05.051Z,12.10
2019-02-23T05:55:33.221Z,13.50
2019-02-23T05:58:00.197Z,13.62
2019-02-23T06:00:27.356Z,13.28
2019-02-23T06:02:54.362Z,12.78
2019-02-23T06:05:21.302Z,13.18
2019-02-23T06:07:48.348Z,12.18
2019-02-23T06:10:15.383Z,12.93
2019-02-23T06:12:42.337Z,12.55
2019-02-23T06:15:10.871Z,12.03
2019-02-23T06:17:37.895Z,12.95
2019-02-23T06:20:05.359Z,12.82
2019-02-23T06:22:32.453Z,14.03
2019-02-23T06:24:59.459Z,12.98
2019-02-23T06:27:26.505Z,12.03
2019-02-23T06:29:55.295Z,11.80
2019-02-23T06:32:23.456Z,12.63
2019-02-23T06:34:50.461Z,13.03
2019-02-23T06:37:17.479Z,13.85
2019-02-23T06:39:44.544Z,12.33
2019-02-23T06:42:11.556Z,12.85
2019-02-23T06:44:38.724Z,14.25
2019-02-23T06:47:05.672Z,13.00
2019-02-23T06:49:32.743Z,12.75
2019-02-23T06:52:04.370Z,13.05
2019-02-23T06:54:28.565Z,12.90
2019-02-23T06:56:55.598Z,12.58
2019-02-23T06:59:22.551Z,12.68
2019-02-23T07:01:49.570Z,12.18
2019-02-23T07:04:16.601Z,12.82
2019-02-23T07:06:43.618Z,12.80
2019-02-23T07:09:10.642Z,14.98
2019-02-23T07:11:38.538Z,13.40
2019-02-23T07:14:05.666Z,13.53
2019-02-23T07:16:32.706Z,13.55
2019-02-23T07:18:59.644Z,13.00
2019-02-23T07:21:26.824Z,13.93
2019-02-23T07:23:53.846Z,13.03
2019-02-23T07:26:20.824Z,11.45
2019-02-23T07:28:47.812Z,12.05
2019-02-23T07:31:14.778Z,11.22
2019-02-23T07:33:41.829Z,12.53
2019-02-23T07:36:08.722Z,12.95
2019-02-23T07:38:35.873Z,12.60
2019-02-23T07:41:03.139Z,13.08
2019-02-23T07:43:31.053Z,13.48
2019-02-23T07:45:58.042Z,13.62
2019-02-23T07:48:25.089Z,12.07
2019-02-23T07:50:57.149Z,13.43
2019-02-23T07:53:33.490Z,12.68
2019-02-23T07:56:00.756Z,12.28
2019-02-23T07:58:27.833Z,12.95
2019-02-23T08:00:54.739Z,12.55
2019-02-23T08:03:21.909Z,13.22
2019-02-23T08:05:49.027Z,13.32
2019-02-23T08:08:16.048Z,12.73
2019-02-23T08:10:43.097Z,13.05
2019-02-23T08:13:10.791Z,11.73
2019-02-23T08:15:37.975Z,13.60
2019-02-23T08:18:04.973Z,14.15
2019-02-23T08:20:31.979Z,12.58
2019-02-23T08:22:58.997Z,11.93
2019-02-23T08:25:25.879Z,11.68
2019-02-23T08:27:52.799Z,12.68
2019-02-23T08:30:19.904Z,12.63
2019-02-23T08:32:47.118Z,12.20
2019-02-23T08:35:16.471Z,13.60
2019-02-23T08:37:45.097Z,13.95
2019-02-23T08:40:12.449Z,12.37
2019-02-23T08:42:39.511Z,13.00
2019-02-23T08:45:07.185Z,13.83
2019-02-23T08:50:02.743Z,11.85
2019-02-23T08:52:29.753Z,13.38
2019-02-23T08:54:56.748Z,12.30
2019-02-23T08:57:23.725Z,12.43
2019-02-23T08:59:50.822Z,11.75
2019-02-23T09:02:19.214Z,12.73
2019-02-23T09:04:46.313Z,13.13
2019-02-23T09:07:13.444Z,12.90
2019-02-23T09:09:40.758Z,12.60
2019-02-23T09:12:08.923Z,12.75
2019-02-23T09:14:35.995Z,12.78
2019-02-23T09:17:03.215Z,13.55
2019-02-23T09:19:31.279Z,13.10
2019-02-23T09:21:59.688Z,12.90
2019-02-23T09:24:27.117Z,12.30
2019-02-23T09:26:54.256Z,12.50
2019-02-23T09:29:21.334Z,11.20
2019-02-23T09:31:48.406Z,13.62
2019-02-23T09:34:16.579Z,11.95
2019-02-23T09:36:46.151Z,10.98
2019-02-23T09:39:12.534Z,12.45
2019-02-23T09:41:39.643Z,12.60
2019-02-23T09:44:06.617Z,11.65
2019-02-23T09:46:33.794Z,12.53
2019-02-23T09:49:00.850Z,13.18
2019-02-23T09:51:27.822Z,11.45
2019-02-23T09:53:54.907Z,12.45
2019-02-23T09:56:21.988Z,12.25
2019-02-23T09:58:49.074Z,12.63
2019-02-23T10:01:16.084Z,12.03
2019-02-23T10:03:43.149Z,12.15
2019-02-23T10:06:10.166Z,11.80
2019-02-23T10:08:37.148Z,12.03
2019-02-23T10:11:04.164Z,11.97
2019-02-23T10:13:31.204Z,11.95
2019-02-23T10:15:58.322Z,12.80
2019-02-23T10:18:25.376Z,12.75
2019-02-23T10:20:52.412Z,13.40
2019-02-23T10:23:22.388Z,11.63
2019-02-23T10:25:48.386Z,12.60
2019-02-23T10:28:16.522Z,12.85
2019-02-23T10:30:43.531Z,11.90
2019-02-23T10:33:10.542Z,11.22
2019-02-23T10:35:37.484Z,13.32
2019-02-23T10:38:04.558Z,12.28
2019-02-23T10:40:31.627Z,12.18
2019-02-23T10:42:58.680Z,13.00
2019-02-23T10:45:25.715Z,13.55
2019-02-23T10:47:52.908Z,11.85
2019-02-23T10:50:22.054Z,11.22
2019-02-23T10:52:49.135Z,12.45
2019-02-23T10:55:16.323Z,13.28
2019-02-23T10:57:43.406Z,12.63
2019-02-23T11:00:17.494Z,12.50
2019-02-23T11:02:44.681Z,13.38
2019-02-23T11:05:12.057Z,12.18
2019-02-23T11:07:39.166Z,13.05
2019-02-23T11:10:06.333Z,12.85
2019-02-23T11:12:33.379Z,12.68
2019-02-23T11:15:00.618Z,13.00
2019-02-23T11:17:27.780Z,12.65
2019-02-23T11:19:55.020Z,12.60
2019-02-23T11:22:22.066Z,11.50
2019-02-23T11:24:49.013Z,12.60
2019-02-23T11:27:16.031Z,13.28
2019-02-23T11:29:43.118Z,12.90
2019-02-23T11:32:10.327Z,12.73
2019-02-23T11:34:37.493Z,13.38
2019-02-23T11:37:04.632Z,11.97
2019-02-23T11:39:32.961Z,12.20
2019-02-23T11:42:00.429Z,12.80
2019-02-23T11:44:27.580Z,13.48
2019-02-23T11:47:01.770Z,12.18
2019-02-23T11:49:23.824Z,12.45
2019-02-23T11:51:50.812Z,11.60
2019-02-23T11:54:17.866Z,12.40
2019-02-23T11:56:44.924Z,12.65
2019-02-23T11:59:11.916Z,11.20
2019-02-23T12:01:38.981Z,12.35
2019-02-23T12:04:06.114Z,11.78
2019-02-23T12:06:33.052Z,12.90
2019-02-23T12:09:00.030Z,11.15
2019-02-23T12:11:27.039Z,11.80
2019-02-23T12:13:54.028Z,12.10
2019-02-23T12:16:21.540Z,12.03
2019-02-23T12:18:48.600Z,11.30
2019-02-23T12:21:15.648Z,10.58
2019-02-23T12:23:42.648Z,11.00
2019-02-23T12:26:09.585Z,10.60
2019-02-23T12:28:36.604Z,10.85
2019-02-23T12:31:03.586Z,10.78
2019-02-23T12:33:30.694Z,11.93
2019-02-23T12:35:57.642Z,11.80
2019-02-23T12:38:24.974Z,11.33
2019-02-23T12:40:52.118Z,10.90
2019-02-23T12:43:19.166Z,11.93
2019-02-23T12:45:46.115Z,11.45
2019-02-23T12:48:13.192Z,10.82
2019-02-23T12:50:40.348Z,11.95
2019-02-23T12:53:07.389Z,11.88
2019-02-23T12:55:34.332Z,11.57
2019-02-23T12:58:01.308Z,11.50
2019-02-23T13:00:28.246Z,11.53
2019-02-23T13:02:55.197Z,11.35
2019-02-23T13:05:22.104Z,11.03
2019-02-23T13:07:49.144Z,10.65
2019-02-23T13:10:16.123Z,12.43
2019-02-23T13:13:27.917Z,11.15
2019-02-23T13:16:11.526Z,11.40
2019-02-23T13:19:19.132Z,10.82
2019-02-23T13:22:39.852Z,11.10
2019-02-23T13:25:50.305Z,10.88
2019-02-23T13:28:57.904Z,11.43
2019-02-23T13:32:00.671Z,10.32
2019-02-23T13:35:15.345Z,10.20
2019-02-23T13:37:58.871Z,10.63
2019-02-23T13:40:54.344Z,10.63
2019-02-23T13:43:57.990Z,10.25
2019-02-23T13:47:01.434Z,11.50
2019-02-23T13:50:14.033Z,10.50
2019-02-23T13:53:28.890Z,11.35
2019-02-23T13:56:31.107Z,10.98
2019-02-23T13:59:39.224Z,11.83
2019-02-23T14:02:28.690Z,11.68
2019-02-23T14:05:40.546Z,11.10
2019-02-23T14:08:48.196Z,11.40
2019-02-23T14:11:54.943Z,11.45
2019-02-23T14:15:01.401Z,9.90
2019-02-23T14:18:16.212Z,10.48
2019-02-23T14:21:46.397Z,10.90
2019-02-23T14:24:50.108Z,10.15
2019-02-23T14:27:32.532Z,10.13
2019-02-23T14:30:50.462Z,9.85
2019-02-23T14:34:02.077Z,9.83
2019-02-23T14:37:10.804Z,9.08
2019-02-23T14:40:14.383Z,10.38
2019-02-23T14:43:21.625Z,9.70
2019-02-23T14:46:45.501Z,9.10
2019-02-23T14:50:15.483Z,10.35
2019-02-23T14:53:35.393Z,9.20
2019-02-23T14:56:31.793Z,10.50
2019-02-23T14:59:23.843Z,9.00
2019-02-23T15:02:46.754Z,7.83
2019-02-23T15:05:50.121Z,8.50
2019-02-23T15:08:44.883Z,8.40
2019-02-23T15:11:49.691Z,9.00
2019-02-23T15:14:55.734Z,8.88
2019-02-23T15:17:59.169Z,9.45
2019-02-23T15:21:02.449Z,8.50
2019-02-23T15:24:13.894Z,8.53
2019-02-23T15:27:24.441Z,9.88
2019-02-23T15:30:29.918Z,9.48
2019-02-23T15:34:00.005Z,9.35
2019-02-23T15:37:00.647Z,9.53
2019-02-23T15:39:51.379Z,8.45
2019-02-23T15:42:34.187Z,8.75
2019-02-23T15:45:46.593Z,9.80
2019-02-23T15:49:13.925Z,9.60
2019-02-23T15:51:41.147Z,10.10
2019-02-23T15:54:08.418Z,9.53
2019-02-23T15:56:35.489Z,9.10
2019-02-23T15:59:02.364Z,10.40
2019-02-23T16:01:29.335Z,10.28
2019-02-23T16:03:56.350Z,9.68
2019-02-23T16:06:23.380Z,8.85
2019-02-23T16:08:50.396Z,8.55
2019-02-23T16:11:17.549Z,10.00
2019-02-23T16:13:44.586Z,9.00
2019-02-23T16:16:11.508Z,9.63
2019-02-23T16:18:38.845Z,8.30
2019-02-23T16:21:06.069Z,9.40
2019-02-23T16:23:35.586Z,9.13
2019-02-23T16:26:01.878Z,8.35
2019-02-23T16:28:28.888Z,9.05
2019-02-23T16:30:55.895Z,8.28
2019-02-23T16:33:23.358Z,9.28
2019-02-23T16:35:50.760Z,8.15
2019-02-23T16:38:18.067Z,8.90
2019-02-23T16:40:45.585Z,8.10
2019-02-23T16:43:13.074Z,8.43
2019-02-23T16:45:40.523Z,8.45
2019-02-23T16:48:08.218Z,8.88
2019-02-23T16:50:35.733Z,8.85
2019-02-23T16:53:03.216Z,8.93
2019-02-23T16:55:30.965Z,8.53
2019-02-23T16:57:59.157Z,9.05
2019-02-23T17:00:26.859Z,8.55
2019-02-23T17:02:54.422Z,9.05
2019-02-23T17:05:21.564Z,7.60
2019-02-23T17:11:23.076Z,8.13
2019-02-23T17:13:50.532Z,7.62
2019-02-23T17:16:17.698Z,8.10
2019-02-23T17:18:44.926Z,8.40
2019-02-23T17:21:12.262Z,8.08
2019-02-23T17:23:39.265Z,7.95
2019-02-23T17:26:06.987Z,8.03
2019-02-23T17:28:34.036Z,8.48
2019-02-23T17:31:01.097Z,8.60
2019-02-23T17:33:28.171Z,8.40
2019-02-23T17:35:55.374Z,9.88
2019-02-23T17:38:22.416Z,8.23
2019-02-23T17:40:49.532Z,8.25
2019-02-23T17:43:16.567Z,11.53
2019-02-23T17:45:43.710Z,9.35
2019-02-23T17:48:11.073Z,7.55
2019-02-23T17:50:38.054Z,9.30
2019-02-23T17:53:05.061Z,8.35
2019-02-23T17:55:32.120Z,8.48
2019-02-23T17:57:59.263Z,8.58
2019-02-23T18:00:26.307Z,8.78
2019-02-23T18:02:53.348Z,8.40
2019-02-23T18:05:20.268Z,8.58
2019-02-23T18:07:47.655Z,8.08
2019-02-23T18:10:14.985Z,8.83
2019-02-23T18:12:42.381Z,7.95
2019-02-23T18:15:10.003Z,8.08
2019-02-23T18:17:37.542Z,10.10
2019-02-23T18:20:06.570Z,9.58
2019-02-23T18:22:34.046Z,11.00
2019-02-23T18:25:01.300Z,11.73
2019-02-23T18:27:29.238Z,12.82
2019-02-23T18:29:56.349Z,13.20
2019-02-23T18:32:23.434Z,13.88
2019-02-23T18:34:50.525Z,13.18
2019-02-23T18:37:17.446Z,14.40
2019-02-23T18:39:44.601Z,14.13
2019-02-23T18:42:11.778Z,13.83
2019-02-23T18:44:38.780Z,11.88
2019-02-23T18:47:05.912Z,11.50
2019-02-23T18:49:32.997Z,11.60
2019-02-23T18:51:59.946Z,11.63
2019-02-23T18:54:26.905Z,12.33
2019-02-23T18:56:53.925Z,12.13
2019-02-23T18:59:20.962Z,12.33
2019-02-23T19:01:47.874Z,13.32
2019-02-23T19:04:15.799Z,12.23
2019-02-23T19:06:42.786Z,14.98
2019-02-23T19:09:09.809Z,13.65
2019-02-23T19:11:36.943Z,14.00
2019-02-23T19:14:03.986Z,13.05
2019-02-23T19:16:31.035Z,13.68
2019-02-23T19:18:58.104Z,12.23
2019-02-23T19:21:25.105Z,14.03
2019-02-23T19:23:53.215Z,15.13
2019-02-23T19:26:20.548Z,12.25
2019-02-23T19:28:47.881Z,13.25
2019-02-23T19:31:18.457Z,13.00
2019-02-23T19:33:45.743Z,13.98
2019-02-23T19:36:16.329Z,14.07
2019-02-23T19:38:43.975Z,14.95
2019-02-23T19:41:11.266Z,15.00
2019-02-23T19:43:38.740Z,12.90
2019-02-23T19:46:06.358Z,13.58
2019-02-23T19:48:34.095Z,12.88
2019-02-23T19:51:04.242Z,11.95
2019-02-23T19:53:31.543Z,11.05
2019-02-23T19:55:58.535Z,12.03
2019-02-23T19:58:25.617Z,11.28
2019-02-23T20:00:52.638Z,10.53
2019-02-23T20:03:19.554Z,11.15
2019-02-23T20:05:46.893Z,11.33
2019-02-23T20:08:14.008Z,10.50
2019-02-23T20:10:42.899Z,10.13
2019-02-23T20:13:10.612Z,10.25
2019-02-23T20:15:37.945Z,10.18
2019-02-23T20:18:05.978Z,10.30
2019-02-23T20:20:33.256Z,8.98
2019-02-23T20:23:00.691Z,9.25
2019-02-23T20:25:27.730Z,8.65
2019-02-23T20:27:54.654Z,8.78
2019-02-23T20:30:21.812Z,9.38
2019-02-23T20:32:51.599Z,8.63
2019-02-23T20:35:18.701Z,8.25
2019-02-23T20:37:46.288Z,8.30
2019-02-23T20:40:13.557Z,10.48
2019-02-23T20:42:43.779Z,16.42
2019-02-23T20:45:11.473Z,9.90
2019-02-23T20:47:38.980Z,9.33
2019-02-23T20:50:06.573Z,9.48
2019-02-23T20:52:33.604Z,11.08
2019-02-23T20:55:00.628Z,10.68
2019-02-23T20:57:27.673Z,11.12
2019-02-23T20:59:54.834Z,9.55
2019-02-23T21:02:21.836Z,9.80
2019-02-23T21:04:48.893Z,9.95
2019-02-23T21:07:16.003Z,11.20
2019-02-23T21:09:43.180Z,9.35
2019-02-23T21:12:10.367Z,9.18
2019-02-23T21:14:37.456Z,11.22
2019-02-23T21:17:07.492Z,10.38
2019-02-23T21:19:34.696Z,9.28
2019-02-23T21:22:01.788Z,10.32
2019-02-23T21:24:29.000Z,11.03
2019-02-23T21:26:56.102Z,9.80
2019-02-23T21:29:23.156Z,10.60
2019-02-23T21:31:50.324Z,9.50
2019-02-23T21:34:17.328Z,10.65
2019-02-23T21:36:44.367Z,9.10
2019-02-23T21:39:11.727Z,10.08
2019-02-23T21:41:38.698Z,9.58
2019-02-23T21:44:05.772Z,9.73
2019-02-23T21:46:32.985Z,9.45
2019-02-23T21:49:00.144Z,9.60
2019-02-23T21:51:27.168Z,9.23
2019-02-23T21:53:54.161Z,10.38
2019-02-23T21:56:21.199Z,9.13
2019-02-23T21:58:49.391Z,9.73
2019-02-23T22:01:16.784Z,9.73
2019-02-23T22:03:43.815Z,9.25
2019-02-23T22:06:13.284Z,9.33
2019-02-23T22:08:40.178Z,9.60
2019-02-23T22:11:07.107Z,9.05
2019-02-23T22:13:34.484Z,8.45
2019-02-23T22:16:01.632Z,8.75
2019-02-23T22:18:28.653Z,9.15
2019-02-23T22:20:57.734Z,10.15
2019-02-23T22:23:24.797Z,8.83
2019-02-23T22:25:51.844Z,9.00
2019-02-23T22:28:18.913Z,8.80
2019-02-23T22:30:45.934Z,8.30
2019-02-23T22:33:13.365Z,8.85
2019-02-23T22:35:40.597Z,9.50
2019-02-23T22:38:07.820Z,8.68
2019-02-23T22:40:34.883Z,8.83
2019-02-23T22:43:01.925Z,8.95
2019-02-23T22:45:30.446Z,10.03
2019-02-23T22:47:57.810Z,8.63
2019-02-23T22:50:27.928Z,10.08
2019-02-23T22:52:55.210Z,9.10
2019-02-23T22:55:22.658Z,8.33
2019-02-23T22:57:49.916Z,9.20
2019-02-23T23:00:24.880Z,9.33
2019-02-23T23:02:52.395Z,8.65
2019-02-23T23:05:20.938Z,9.30
2019-02-23T23:07:47.916Z,7.85
2019-02-23T23:10:14.898Z,9.38
2019-02-23T23:12:41.944Z,8.85
2019-02-23T23:15:09.137Z,8.75
2019-02-23T23:17:41.911Z,9.53
2019-02-23T23:20:09.359Z,9.18
2019-02-23T23:22:36.438Z,7.83
2019-02-23T23:25:03.756Z,8.95
2019-02-23T23:27:30.786Z,8.15
2019-02-23T23:29:57.884Z,9.43
2019-02-23T23:32:24.806Z,8.83
2019-02-23T23:34:51.834Z,8.95
2019-02-23T23:37:21.426Z,8.90
2019-02-23T23:39:48.830Z,9.53
2019-02-23T23:42:17.489Z,8.15
2019-02-23T23:44:45.149Z,8.65
2019-02-23T23:47:12.209Z,8.60
2019-02-23T23:49:39.156Z,8.25
2019-02-23T23:52:06.316Z,7.75
2019-02-23T23:54:33.364Z,8.08
2019-02-23T23:57:00.381Z,8.58
2019-02-23T23:59:27.309Z,7.78
